createdAt,value
2022-12-04T00:00:44.695Z,2.20
2022-12-04T00:03:12.949Z,2.20
2022-12-04T00:05:39.829Z,2.20
2022-12-04T00:08:06.692Z,2.20
2022-12-04T00:10:33.494Z,2.20
2022-12-04T00:13:00.393Z,2.20
2022-12-04T00:15:27.290Z,2.10
2022-12-04T00:17:54.680Z,2.20
2022-12-04T00:20:22.797Z,2.20
2022-12-04T00:22:49.566Z,2.20
2022-12-04T00:25:16.431Z,2.20
2022-12-04T00:27:43.322Z,2.20
2022-12-04T00:30:11.092Z,2.20
2022-12-04T00:32:37.829Z,2.20
2022-12-04T00:35:05.343Z,2.20
2022-12-04T00:37:33.695Z,2.20
2022-12-04T00:40:00.536Z,2.20
2022-12-04T00:42:27.292Z,2.20
2022-12-04T00:44:54.014Z,2.20
2022-12-04T00:47:20.866Z,2.20
2022-12-04T00:49:47.625Z,2.20
2022-12-04T00:52:14.454Z,2.20
2022-12-04T00:54:42.566Z,2.20
2022-12-04T00:57:09.341Z,2.20
2022-12-04T00:59:37.478Z,2.20
2022-12-04T01:02:04.704Z,2.20
2022-12-04T01:04:31.607Z,2.20
2022-12-04T01:07:04.678Z,2.20
2022-12-04T01:09:32.867Z,2.20
2022-12-04T01:12:00.946Z,2.20
2022-12-04T01:14:27.736Z,2.20
2022-12-04T01:16:54.796Z,2.30
2022-12-04T01:19:21.611Z,2.20
2022-12-04T01:21:48.465Z,2.20
2022-12-04T01:24:15.237Z,2.20
2022-12-04T01:26:41.976Z,2.30
2022-12-04T01:29:10.104Z,2.30
2022-12-04T01:31:36.951Z,2.20
2022-12-04T01:34:03.927Z,2.20
2022-12-04T01:36:30.685Z,2.20
2022-12-04T01:38:57.412Z,2.20
2022-12-04T01:41:25.991Z,2.20
2022-12-04T01:44:15.711Z,2.20
2022-12-04T01:46:44.752Z,2.20
2022-12-04T01:49:14.974Z,2.30
2022-12-04T01:51:44.992Z,2.20
2022-12-04T01:54:17.403Z,2.30
2022-12-04T01:56:47.561Z,2.20
2022-12-04T01:59:18.852Z,2.20
2022-12-04T02:01:53.341Z,2.30
2022-12-04T02:04:20.413Z,2.30
2022-12-04T02:06:47.336Z,2.30
2022-12-04T02:09:14.369Z,2.30
2022-12-04T02:11:46.535Z,2.30
2022-12-04T02:14:25.762Z,2.30
2022-12-04T02:17:01.310Z,2.30
2022-12-04T02:19:57.262Z,2.30
2022-12-04T02:22:40.970Z,2.30
2022-12-04T02:25:17.187Z,2.30
2022-12-04T02:28:09.081Z,2.20
2022-12-04T02:30:40.350Z,2.30
2022-12-04T02:33:17.237Z,2.30
2022-12-04T02:35:48.263Z,2.20
2022-12-04T02:38:22.528Z,2.20
2022-12-04T02:40:53.483Z,2.20
2022-12-04T02:43:25.686Z,2.20
2022-12-04T02:45:58.146Z,2.20
2022-12-04T02:48:27.618Z,2.30
2022-12-04T02:50:56.677Z,2.30
2022-12-04T02:53:29.264Z,2.30
2022-12-04T02:55:59.869Z,2.30
2022-12-04T02:58:33.922Z,2.30
2022-12-04T03:01:02.515Z,2.30
2022-12-04T03:03:31.764Z,2.30
2022-12-04T03:06:02.503Z,2.30
2022-12-04T03:08:33.011Z,2.30
2022-12-04T03:11:01.225Z,2.30
2022-12-04T03:13:36.407Z,2.30
2022-12-04T03:16:10.166Z,2.30
2022-12-04T03:18:42.201Z,2.30
2022-12-04T03:21:12.686Z,2.30
2022-12-04T03:23:44.189Z,2.30
2022-12-04T03:26:15.828Z,2.30
2022-12-04T03:28:49.914Z,2.20
2022-12-04T03:31:20.497Z,2.20
2022-12-04T03:33:48.723Z,2.20
2022-12-04T03:36:20.078Z,2.20
2022-12-04T03:38:53.570Z,2.20
2022-12-04T03:41:25.900Z,2.30
2022-12-04T03:43:59.835Z,2.30
2022-12-04T03:46:31.509Z,2.30
2022-12-04T03:49:06.129Z,2.30
2022-12-04T03:51:36.567Z,2.30
2022-12-04T03:54:08.063Z,2.30
2022-12-04T03:56:38.520Z,2.30
2022-12-04T03:59:11.052Z,2.30
2022-12-04T04:01:42.172Z,2.30
2022-12-04T04:04:13.886Z,2.30
2022-12-04T04:06:46.034Z,2.30
2022-12-04T04:09:16.258Z,2.30
2022-12-04T04:11:47.332Z,2.30
2022-12-04T04:14:18.789Z,2.30
2022-12-04T04:16:53.095Z,2.30
2022-12-04T04:19:21.424Z,2.30
2022-12-04T04:21:52.087Z,2.30
2022-12-04T04:24:27.977Z,2.30
2022-12-04T04:26:57.868Z,2.30
2022-12-04T04:29:26.307Z,2.30
2022-12-04T04:31:59.493Z,2.30
2022-12-04T04:34:32.439Z,2.30
2022-12-04T04:37:07.047Z,2.30
2022-12-04T04:39:38.144Z,2.30
2022-12-04T04:42:10.215Z,2.30
2022-12-04T04:44:44.463Z,2.30
2022-12-04T04:47:17.399Z,2.30
2022-12-04T04:49:47.507Z,2.30
2022-12-04T04:52:16.161Z,2.30
2022-12-04T04:54:43.516Z,2.30
2022-12-04T04:57:10.252Z,2.30
2022-12-04T04:59:36.963Z,2.30
2022-12-04T05:02:05.124Z,2.30
2022-12-04T05:04:32.009Z,2.40
2022-12-04T05:06:58.783Z,2.40
2022-12-04T05:09:25.589Z,2.40
2022-12-04T05:11:52.310Z,2.40
2022-12-04T05:14:19.033Z,2.30
2022-12-04T05:16:45.735Z,2.40
2022-12-04T05:19:13.935Z,2.30
2022-12-04T05:21:40.662Z,2.40
2022-12-04T05:24:08.133Z,2.40
2022-12-04T05:26:34.847Z,2.40
2022-12-04T05:29:01.580Z,2.30
2022-12-04T05:31:28.374Z,2.40
2022-12-04T05:33:55.969Z,2.40
2022-12-04T05:36:24.055Z,2.40
2022-12-04T05:38:50.763Z,2.40
2022-12-04T05:41:17.497Z,2.30
2022-12-04T05:43:44.244Z,2.30
2022-12-04T05:46:11.074Z,2.30
2022-12-04T05:48:37.902Z,2.30
2022-12-04T05:51:06.247Z,2.30
2022-12-04T05:53:34.610Z,2.30
2022-12-04T05:56:03.339Z,2.30
2022-12-04T05:58:30.402Z,2.20
2022-12-04T06:00:57.136Z,2.30
2022-12-04T06:03:24.083Z,2.30
2022-12-04T06:05:50.881Z,2.30
2022-12-04T06:08:17.647Z,2.30
2022-12-04T06:10:45.730Z,2.30
2022-12-04T06:13:12.500Z,2.30
2022-12-04T06:15:39.803Z,2.40
2022-12-04T06:18:07.114Z,2.30
2022-12-04T06:20:34.451Z,2.40
2022-12-04T06:23:01.649Z,2.30
2022-12-04T06:25:28.565Z,2.30
2022-12-04T06:27:56.647Z,2.30
2022-12-04T06:30:23.489Z,2.30
2022-12-04T06:32:50.351Z,2.40
2022-12-04T06:35:17.125Z,2.30
2022-12-04T06:37:43.829Z,2.30
2022-12-04T06:40:11.222Z,2.30
2022-12-04T06:42:37.988Z,2.30
2022-12-04T06:45:07.343Z,2.30
2022-12-04T06:47:34.683Z,2.30
2022-12-04T06:50:01.567Z,2.40
2022-12-04T06:52:28.296Z,2.30
2022-12-04T06:54:54.989Z,2.30
2022-12-04T06:57:21.726Z,2.30
2022-12-04T06:59:48.432Z,2.30
2022-12-04T07:02:16.612Z,2.30
2022-12-04T07:04:43.493Z,2.40
2022-12-04T07:07:10.317Z,2.40
2022-12-04T07:09:37.120Z,2.40
2022-12-04T07:12:04.245Z,2.40
2022-12-04T07:14:31.028Z,2.40
2022-12-04T07:16:57.838Z,2.40
2022-12-04T07:19:25.968Z,2.40
2022-12-04T07:21:56.230Z,2.40
2022-12-04T07:24:22.927Z,2.40
2022-12-04T07:26:49.700Z,2.40
2022-12-04T07:29:16.564Z,2.40
2022-12-04T07:31:43.379Z,2.40
2022-12-04T07:34:10.184Z,2.40
2022-12-04T07:36:39.140Z,2.40
2022-12-04T07:39:05.950Z,2.40
2022-12-04T07:41:32.738Z,2.40
2022-12-04T07:43:59.567Z,2.40
2022-12-04T07:46:27.877Z,2.40
2022-12-04T07:48:55.912Z,2.40
2022-12-04T07:51:24.800Z,2.40
2022-12-04T07:53:53.906Z,2.40
2022-12-04T07:56:21.415Z,2.50
2022-12-04T07:58:48.420Z,2.40
2022-12-04T08:01:17.514Z,2.40
2022-12-04T08:03:48.629Z,2.40
2022-12-04T08:06:17.020Z,2.40
2022-12-04T08:08:43.767Z,2.40
2022-12-04T08:11:14.174Z,2.50
2022-12-04T08:13:40.944Z,2.50
2022-12-04T08:16:09.451Z,2.50
2022-12-04T08:18:36.563Z,2.50
2022-12-04T08:21:05.172Z,2.40
2022-12-04T08:23:32.087Z,2.50
2022-12-04T08:25:59.430Z,2.50
2022-12-04T08:28:28.761Z,2.50
2022-12-04T08:30:56.121Z,2.50
2022-12-04T08:33:22.929Z,2.50
2022-12-04T08:35:49.648Z,2.50
2022-12-04T08:38:16.413Z,2.50
2022-12-04T08:40:43.164Z,2.50
2022-12-04T08:43:09.875Z,2.50
2022-12-04T08:45:38.044Z,2.50
2022-12-04T08:48:05.465Z,2.50
2022-12-04T08:50:32.250Z,2.50
2022-12-04T08:52:58.985Z,2.60
2022-12-04T08:55:25.703Z,2.50
2022-12-04T08:57:52.852Z,2.60
2022-12-04T09:00:20.145Z,2.60
2022-12-04T09:02:50.087Z,2.60
2022-12-04T09:05:17.004Z,2.60
2022-12-04T09:07:43.806Z,2.60
2022-12-04T09:10:11.771Z,2.60
2022-12-04T09:12:38.783Z,2.60
2022-12-04T09:15:06.694Z,2.60
2022-12-04T09:17:34.985Z,2.60
2022-12-04T09:20:05.241Z,2.60
2022-12-04T09:22:51.694Z,2.60
2022-12-04T09:25:20.533Z,2.60
2022-12-04T09:27:47.252Z,2.60
2022-12-04T09:30:14.408Z,2.60
2022-12-04T09:32:41.123Z,2.60
2022-12-04T09:35:09.374Z,2.60
2022-12-04T09:37:36.188Z,2.60
2022-12-04T09:40:03.140Z,2.60
2022-12-04T09:42:40.221Z,2.60
2022-12-04T09:45:13.209Z,2.70
2022-12-04T09:47:44.166Z,2.70
2022-12-04T09:50:16.370Z,2.70
2022-12-04T09:52:49.288Z,2.70
2022-12-04T09:55:22.344Z,2.70
2022-12-04T09:57:51.631Z,2.70
2022-12-04T10:00:20.115Z,2.70
2022-12-04T10:02:51.776Z,2.70
2022-12-04T10:05:31.095Z,2.70
2022-12-04T10:08:04.926Z,2.70
2022-12-04T10:10:38.728Z,2.70
2022-12-04T10:13:19.252Z,2.70
2022-12-04T10:15:53.311Z,2.80
2022-12-04T10:18:25.242Z,2.80
2022-12-04T10:21:15.967Z,2.80
2022-12-04T10:23:56.770Z,2.80
2022-12-04T10:26:28.421Z,2.80
2022-12-04T10:28:59.355Z,2.80
2022-12-04T10:31:27.884Z,2.80
2022-12-04T10:33:58.665Z,2.80
2022-12-04T10:36:31.390Z,2.80
2022-12-04T10:39:00.275Z,2.80
2022-12-04T10:41:31.142Z,2.80
2022-12-04T10:43:57.892Z,2.80
2022-12-04T10:46:26.923Z,2.80
2022-12-04T10:48:58.981Z,2.90
2022-12-04T10:51:27.118Z,2.90
2022-12-04T10:53:56.665Z,2.90
2022-12-04T10:56:25.553Z,2.90
2022-12-04T10:58:56.969Z,2.90
2022-12-04T11:01:24.203Z,2.90
2022-12-04T11:03:58.940Z,2.90
2022-12-04T11:06:27.741Z,2.90
2022-12-04T11:08:55.611Z,2.90
2022-12-04T11:11:29.164Z,2.90
2022-12-04T11:14:04.331Z,2.90
2022-12-04T11:16:36.351Z,2.90
2022-12-04T11:19:03.239Z,2.90
2022-12-04T11:21:32.551Z,2.90
2022-12-04T11:23:59.376Z,2.90
2022-12-04T11:26:32.263Z,3.00
2022-12-04T11:29:00.229Z,3.00
2022-12-04T11:31:28.423Z,3.00
2022-12-04T11:33:58.365Z,3.00
2022-12-04T11:36:28.235Z,3.00
2022-12-04T11:39:05.512Z,3.00
2022-12-04T11:41:32.761Z,3.00
2022-12-04T11:44:00.851Z,3.00
2022-12-04T11:46:29.758Z,3.00
2022-12-04T11:48:56.616Z,3.00
2022-12-04T11:51:34.926Z,3.00
2022-12-04T11:54:10.355Z,3.00
2022-12-04T11:56:41.536Z,3.00
2022-12-04T11:59:26.443Z,3.00
2022-12-04T12:02:02.785Z,3.00
2022-12-04T12:04:52.463Z,3.00
2022-12-04T12:07:33.577Z,3.00
2022-12-04T12:10:06.305Z,3.00
2022-12-04T12:12:44.803Z,3.00
2022-12-04T12:15:19.253Z,3.00
2022-12-04T12:17:51.554Z,3.00
2022-12-04T12:20:23.984Z,3.00
2022-12-04T12:23:07.988Z,3.00
2022-12-04T12:25:48.840Z,3.00
2022-12-04T12:28:34.654Z,3.00
2022-12-04T12:31:14.698Z,3.00
2022-12-04T12:33:49.193Z,3.00
2022-12-04T12:36:17.639Z,3.00
2022-12-04T12:38:47.564Z,3.00
2022-12-04T12:41:18.870Z,3.00
2022-12-04T12:43:50.534Z,3.00
2022-12-04T12:46:24.789Z,3.00
2022-12-04T12:48:58.871Z,3.00
2022-12-04T12:51:35.197Z,3.00
2022-12-04T12:54:12.080Z,3.00
2022-12-04T12:56:49.397Z,3.00
2022-12-04T12:59:20.673Z,3.10
2022-12-04T13:01:57.375Z,3.10
2022-12-04T13:04:33.491Z,3.10
2022-12-04T13:07:10.063Z,3.10
2022-12-04T13:09:41.317Z,3.10
2022-12-04T13:12:14.736Z,3.10
2022-12-04T13:14:45.954Z,3.10
2022-12-04T13:17:17.438Z,3.10
2022-12-04T13:19:48.704Z,3.10
2022-12-04T13:22:25.563Z,3.10
2022-12-04T13:25:11.927Z,3.10
2022-12-04T13:27:49.793Z,3.10
2022-12-04T13:30:20.505Z,3.10
2022-12-04T13:33:15.768Z,3.10
2022-12-04T13:35:57.355Z,3.10
2022-12-04T13:38:34.044Z,3.10
2022-12-04T13:41:04.775Z,3.10
2022-12-04T13:43:36.459Z,3.10
2022-12-04T13:46:06.386Z,3.10
2022-12-04T13:48:39.380Z,3.10
2022-12-04T13:51:41.731Z,3.10
2022-12-04T13:54:27.857Z,3.10
2022-12-04T13:56:56.856Z,3.10
2022-12-04T13:59:37.277Z,3.10
2022-12-04T14:02:21.305Z,3.10
2022-12-04T14:04:54.748Z,3.10
2022-12-04T14:07:26.138Z,3.10
2022-12-04T14:09:54.876Z,3.10
2022-12-04T14:12:27.084Z,3.20
2022-12-04T14:14:58.204Z,3.20
2022-12-04T14:17:28.145Z,3.10
2022-12-04T14:19:57.139Z,3.10
2022-12-04T14:22:27.166Z,3.20
2022-12-04T14:25:06.496Z,3.20
2022-12-04T14:27:42.691Z,3.20
2022-12-04T14:30:18.909Z,3.20
2022-12-04T14:32:46.751Z,3.20
2022-12-04T14:35:15.320Z,3.20
2022-12-04T14:37:49.709Z,3.20
2022-12-04T14:40:21.717Z,3.20
2022-12-04T14:42:49.893Z,3.20
2022-12-04T14:45:25.180Z,3.20
2022-12-04T14:48:05.617Z,3.20
2022-12-04T14:50:42.394Z,3.20
2022-12-04T14:53:16.850Z,3.20
2022-12-04T14:55:51.642Z,3.20
2022-12-04T14:58:19.957Z,3.20
2022-12-04T15:00:52.286Z,3.20
2022-12-04T15:03:19.319Z,3.20
2022-12-04T15:05:46.640Z,3.20
2022-12-04T15:08:14.619Z,3.20
2022-12-04T15:10:49.096Z,3.20
2022-12-04T15:13:25.802Z,3.20
2022-12-04T15:15:55.319Z,3.20
2022-12-04T15:18:22.583Z,3.20
2022-12-04T15:20:56.404Z,3.30
2022-12-04T15:23:29.777Z,3.20
2022-12-04T15:26:01.648Z,3.20
2022-12-04T15:28:31.995Z,3.20
2022-12-04T15:31:02.647Z,3.20
2022-12-04T15:33:32.805Z,3.20
2022-12-04T15:36:02.652Z,3.30
2022-12-04T15:38:29.616Z,3.30
2022-12-04T15:40:59.043Z,3.30
2022-12-04T15:43:31.436Z,3.30
2022-12-04T15:45:59.854Z,3.30
2022-12-04T15:48:28.393Z,3.40
2022-12-04T15:50:57.216Z,3.30
2022-12-04T15:53:28.508Z,3.40
2022-12-04T15:55:58.486Z,3.40
2022-12-04T15:58:27.391Z,3.40
2022-12-04T16:00:56.117Z,3.40
2022-12-04T16:03:27.572Z,3.30
2022-12-04T16:06:17.884Z,3.30
2022-12-04T16:08:46.336Z,3.30
2022-12-04T16:11:31.142Z,3.30
2022-12-04T16:14:17.727Z,3.30
2022-12-04T16:16:46.652Z,3.30
2022-12-04T16:19:23.551Z,3.30
2022-12-04T16:21:50.480Z,3.30
2022-12-04T16:24:17.719Z,3.30
2022-12-04T16:26:44.664Z,3.30
2022-12-04T16:29:11.388Z,3.30
2022-12-04T16:31:38.296Z,3.30
2022-12-04T16:34:05.331Z,3.30
2022-12-04T16:36:33.549Z,3.30
2022-12-04T16:39:00.255Z,3.30
2022-12-04T16:41:27.080Z,3.30
2022-12-04T16:43:57.233Z,3.30
2022-12-04T16:46:26.192Z,3.30
2022-12-04T16:48:53.220Z,3.20
2022-12-04T16:51:22.095Z,3.20
2022-12-04T16:53:51.246Z,3.20
2022-12-04T16:56:18.529Z,3.20
2022-12-04T16:58:45.472Z,3.20
2022-12-04T17:01:21.086Z,3.20
2022-12-04T17:03:48.173Z,3.20
2022-12-04T17:06:15.005Z,3.20
2022-12-04T17:08:41.757Z,3.20
2022-12-04T17:11:12.580Z,3.20
2022-12-04T17:13:39.331Z,3.20
2022-12-04T17:16:06.185Z,3.20
2022-12-04T17:18:33.019Z,3.20
2022-12-04T17:20:59.841Z,3.20
2022-12-04T17:23:26.575Z,3.20
2022-12-04T17:25:53.297Z,3.20
2022-12-04T17:28:21.417Z,3.10
2022-12-04T17:30:48.125Z,3.10
2022-12-04T17:33:14.830Z,3.10
2022-12-04T17:35:42.787Z,3.10
2022-12-04T17:38:09.765Z,3.10
2022-12-04T17:40:36.593Z,3.10
2022-12-04T17:43:03.802Z,3.10
2022-12-04T17:45:31.913Z,3.10
2022-12-04T17:47:59.654Z,3.10
2022-12-04T17:50:26.482Z,3.10
2022-12-04T17:52:53.484Z,3.10
2022-12-04T17:55:20.275Z,3.10
2022-12-04T17:57:46.982Z,3.10
2022-12-04T18:00:14.269Z,3.10
2022-12-04T18:02:42.361Z,3.10
2022-12-04T18:05:09.656Z,3.10
2022-12-04T18:07:36.492Z,3.10
2022-12-04T18:10:03.483Z,3.10
2022-12-04T18:12:30.236Z,3.10
2022-12-04T18:14:57.064Z,3.10
2022-12-04T18:17:23.808Z,3.10
2022-12-04T18:19:51.845Z,3.20
2022-12-04T18:22:18.633Z,3.20
2022-12-04T18:24:45.348Z,3.20
2022-12-04T18:27:12.116Z,3.20
2022-12-04T18:29:38.841Z,3.20
2022-12-04T18:32:05.784Z,3.20
2022-12-04T18:34:32.888Z,3.20
2022-12-04T18:37:00.983Z,3.20
2022-12-04T18:39:27.868Z,3.20
2022-12-04T18:41:55.423Z,3.20
2022-12-04T18:44:22.313Z,3.20
2022-12-04T18:46:49.437Z,3.20
2022-12-04T18:49:19.403Z,3.20
2022-12-04T18:51:50.119Z,3.20
2022-12-04T18:54:21.087Z,3.20
2022-12-04T18:56:47.998Z,3.20
2022-12-04T18:59:16.894Z,3.20
2022-12-04T19:01:43.656Z,3.20
2022-12-04T19:04:12.448Z,3.20
2022-12-04T19:06:41.869Z,3.20
2022-12-04T19:09:11.483Z,3.20
2022-12-04T19:11:40.541Z,3.20
2022-12-04T19:14:16.138Z,3.20
2022-12-04T19:16:45.031Z,3.20
2022-12-04T19:19:12.842Z,3.20
2022-12-04T19:21:39.809Z,3.20
2022-12-04T19:24:07.296Z,3.20
2022-12-04T19:26:34.609Z,3.20
2022-12-04T19:29:04.011Z,3.20
2022-12-04T19:31:32.659Z,3.20
2022-12-04T19:34:00.107Z,3.20
2022-12-04T19:36:28.766Z,3.20
2022-12-04T19:38:57.468Z,3.20
2022-12-04T19:41:26.112Z,3.20
2022-12-04T19:43:55.565Z,3.20
2022-12-04T19:46:25.722Z,3.20
2022-12-04T19:48:54.180Z,3.20
2022-12-04T19:51:21.567Z,3.20
2022-12-04T19:53:49.167Z,3.20
2022-12-04T19:56:17.887Z,3.20
2022-12-04T19:58:44.970Z,3.20
2022-12-04T20:01:18.787Z,3.20
2022-12-04T20:03:47.356Z,3.20
2022-12-04T20:06:15.769Z,3.20
2022-12-04T20:08:42.999Z,3.20
2022-12-04T20:11:12.218Z,3.20
2022-12-04T20:13:39.760Z,3.20
2022-12-04T20:16:08.795Z,3.20
2022-12-04T20:18:36.759Z,3.20
2022-12-04T20:21:06.009Z,3.20
2022-12-04T20:23:32.713Z,3.20
2022-12-04T20:26:04.113Z,3.20
2022-12-04T20:28:30.850Z,3.20
2022-12-04T20:30:58.400Z,3.20
2022-12-04T20:33:25.291Z,3.20
2022-12-04T20:35:52.105Z,3.20
2022-12-04T20:38:20.179Z,3.20
2022-12-04T20:40:46.960Z,3.20
2022-12-04T20:43:13.723Z,3.20
2022-12-04T20:45:40.512Z,3.20
2022-12-04T20:48:07.249Z,3.20
2022-12-04T20:50:34.017Z,3.20
2022-12-04T20:53:00.801Z,3.20
2022-12-04T20:55:28.864Z,3.20
2022-12-04T20:57:55.588Z,3.20
2022-12-04T21:00:22.361Z,3.20
2022-12-04T21:02:49.205Z,3.20
2022-12-04T21:05:15.989Z,3.20
2022-12-04T21:07:42.749Z,3.20
2022-12-04T21:10:10.419Z,3.20
2022-12-04T21:12:43.034Z,3.20
2022-12-04T21:15:10.307Z,3.20
2022-12-04T21:17:37.022Z,3.20
2022-12-04T21:20:07.832Z,3.20
2022-12-04T21:22:37.481Z,3.20
2022-12-04T21:25:04.816Z,3.20
2022-12-04T21:27:31.572Z,3.20
2022-12-04T21:29:59.802Z,3.20
2022-12-04T21:32:26.661Z,3.20
2022-12-04T21:34:53.387Z,3.20
2022-12-04T21:37:20.120Z,3.20
2022-12-04T21:39:46.855Z,3.20
2022-12-04T21:42:13.600Z,3.20
2022-12-04T21:44:40.309Z,3.20
2022-12-04T21:47:08.350Z,3.20
2022-12-04T21:49:35.061Z,3.20
2022-12-04T21:52:01.769Z,3.20
2022-12-04T21:54:29.197Z,3.10
2022-12-04T21:56:56.787Z,3.20
2022-12-04T21:59:23.736Z,3.20
2022-12-04T22:01:50.622Z,3.10
2022-12-04T22:04:18.835Z,3.10
2022-12-04T22:06:45.543Z,3.10
2022-12-04T22:09:13.110Z,3.10
2022-12-04T22:11:40.644Z,3.10
2022-12-04T22:14:07.730Z,3.10
2022-12-04T22:16:39.851Z,3.10
2022-12-04T22:19:08.401Z,3.10
2022-12-04T22:21:36.476Z,3.10
2022-12-04T22:24:03.975Z,3.10
2022-12-04T22:26:31.945Z,3.10
2022-12-04T22:28:58.878Z,3.10
2022-12-04T22:31:30.127Z,3.10
2022-12-04T22:33:58.700Z,3.10
2022-12-04T22:36:27.160Z,3.10
2022-12-04T22:39:11.251Z,3.10
2022-12-04T22:41:38.218Z,3.10
2022-12-04T22:44:05.496Z,3.10
2022-12-04T22:46:32.328Z,3.10
2022-12-04T22:48:59.207Z,3.10
2022-12-04T22:51:26.145Z,3.10
2022-12-04T22:53:56.265Z,3.10
2022-12-04T22:56:24.833Z,3.10
2022-12-04T22:58:51.801Z,3.10
2022-12-04T23:01:20.461Z,3.10
2022-12-04T23:03:48.147Z,3.10
2022-12-04T23:06:16.630Z,3.10
2022-12-04T23:08:44.144Z,3.10
2022-12-04T23:11:14.281Z,3.10
2022-12-04T23:13:41.388Z,3.10
2022-12-04T23:16:10.074Z,3.10
2022-12-04T23:18:37.692Z,3.10
2022-12-04T23:21:06.405Z,3.10
2022-12-04T23:23:33.904Z,3.10
2022-12-04T23:26:02.347Z,3.10
2022-12-04T23:28:30.564Z,3.10
2022-12-04T23:30:57.490Z,3.10
2022-12-04T23:33:24.409Z,3.10
2022-12-04T23:35:51.907Z,3.10
2022-12-04T23:38:18.846Z,3.10
2022-12-04T23:40:45.634Z,3.10
2022-12-04T23:43:12.373Z,3.10
2022-12-04T23:45:40.552Z,3.10
2022-12-04T23:48:07.523Z,3.10
2022-12-04T23:50:34.253Z,3.10
2022-12-04T23:53:01.000Z,3.10
2022-12-04T23:55:32.619Z,3.10
2022-12-04T23:58:01.371Z,3.10
